Mt View, North Carolina
Current Conditions -  °F | °C
As of 8:53 PM on Friday 24 Oct 2014 (Local Time) from KHKY Reporting Station
Clear Clear  
Wind Chill: 53°   Ceiling: Unl
Heat Index: 53°   Visibility: 10mi
Dew Point: 47°   Wind: 6mph
Humidity: 80%   Direction: 320°NW
Pressure: 30.02"   Gusts: NA
Location:  35.6584°N, 81.3878°W
Report Text: KHKY 250053Z AUTO 32005KT 10SM CLR 12/08 A3002 RMK AO2 SLP153 T01170083
Loading
Personal Weather Stations






























Interactive Weather Map
Tropical Storm Tracking
New forecast layout! Learn more

10-Day Weather Forecast

Advertisements
Track Severe Weather on mobile